Time;durP1;ratioP1;P1;durP2;ratioP2;P2;SDS_P1;SDS_P2;PMS_P1;PMS_P2;Temp;Humidity;BMP_temperature;BMP_pressure;BME280_temperature;BME280_humidity;BME280_pressure;Samples;Min_cycle;Max_cycle;Signal;HPM_P1;HPM_P2
2022/03/07 00:01:25;;;;;;;;;;;-0.60;99.90;;;-1.71;62.48;95933.81;10451165;28;1861;-69
2022/03/07 00:06:28;;;;;;;;;;;-0.70;99.90;;;-1.84;64.71;95929.25;10445139;28;1906;-69
2022/03/07 00:11:34;;;;;;;;;;;-0.90;99.90;;;-1.72;64.88;95940.91;10449531;28;1900;-68
2022/03/07 00:16:37;;;;;;;;;;;-0.90;99.90;;;-1.93;66.63;95938.31;10464804;28;1837;-68
2022/03/07 00:21:40;;;;;;;;;;;-0.90;99.90;;;-1.86;67.82;95939.16;10462697;28;1906;-69
2022/03/07 00:26:43;;;;;;;;;;;-0.90;99.90;;;-1.87;68.75;95942.00;10442305;28;1980;-69
2022/03/07 00:31:47;;;;;;;;;;;-0.90;99.90;;;-1.88;69.37;95943.81;10449472;28;1841;-70
2022/03/07 00:36:50;;;;;;;;;;;-0.90;99.90;;;-1.94;70.43;95942.75;10462665;28;1845;-69
2022/03/07 00:41:53;;;;;;;;;;;-1.10;99.90;;;-1.96;72.31;95949.22;10457283;28;1843;-68
2022/03/07 00:46:56;;;;;;;;;;;-1.00;99.90;;;-2.01;73.16;95951.63;10442351;28;1981;-68
2022/03/07 00:51:59;;;;;;;;;;;-1.00;99.90;;;-2.06;75.29;95936.38;10438219;28;1564;-68
2022/03/07 00:57:02;;;;;;;;;;;-1.20;99.90;;;-1.99;76.00;95936.44;10443372;28;1964;-69
2022/03/07 01:02:06;;;;;;;;;;;-1.10;99.90;;;-2.13;78.38;95935.50;10430886;28;1894;-69
2022/03/07 01:07:09;;;;;;;;;;;-1.20;99.90;;;-2.22;80.18;95931.41;10449576;28;1887;-68
2022/03/07 01:12:13;;;;;;;;;;;-1.30;99.90;;;-2.35;81.23;95934.75;10448514;28;1874;-69
2022/03/07 01:17:16;;;;;;;;;;;-1.40;99.90;;;-2.40;82.95;95931.03;10469845;22;1869;-68
2022/03/07 01:22:19;;;;;;;;;;;-1.40;99.90;;;-2.38;82.73;95940.38;10568758;27;1779;-69
2022/03/07 01:27:23;;;;;;;;;;;-1.40;99.90;;;-2.28;83.52;95935.59;10572439;27;2299;-69
2022/03/07 01:32:26;;;;;;;;;;;-1.50;99.90;;;-2.37;84.84;95930.66;10543292;27;1841;-69
2022/03/07 01:37:30;;;;;;;;;;;-1.30;99.90;;;-2.43;85.27;95931.41;10564641;27;1944;-70
2022/03/07 01:42:33;;;;;;;;;;;-1.40;99.90;;;-2.40;85.72;95931.84;10554060;27;2285;-68
2022/03/07 01:47:36;;;;;;;;;;;-1.40;99.90;;;-2.36;85.62;95933.09;10567889;27;1985;-68
2022/03/07 01:52:40;;;;;;;;;;;-1.40;99.90;;;-2.30;86.31;95932.31;10558541;27;1870;-70
2022/03/07 01:57:42;;;;;;;;;;;-1.40;99.90;;;-2.18;85.20;95925.53;10566320;27;1921;-69
2022/03/07 02:02:45;;;;;;;;;;;-1.30;99.90;;;-2.26;86.24;95920.41;10541631;28;2016;-68
2022/03/07 02:07:49;;;;;;;;;;;-1.30;99.90;;;-2.40;85.41;95923.94;10566181;27;1921;-70
2022/03/07 02:12:53;;;;;;;;;;;-1.40;99.90;;;-2.58;85.45;95919.13;10549483;28;1986;-68
2022/03/07 02:17:57;;;;;;;;;;;-1.50;99.90;;;-2.68;85.56;95920.44;10539174;27;1899;-69
2022/03/07 02:23:04;;;;;;;;;;;-1.70;99.90;;;-2.56;85.25;95914.47;10564775;28;2007;-68
2022/03/07 02:28:09;;;;;;;;;;;-1.70;99.90;;;-2.63;83.86;95926.75;10563047;28;1957;-70
2022/03/07 02:33:13;;;;;;;;;;;-1.60;99.90;;;-2.77;83.36;95920.56;10555553;28;1976;-69
2022/03/07 02:38:17;;;;;;;;;;;-1.70;99.90;;;-2.77;82.98;95927.63;10547406;28;1894;-68
2022/03/07 02:43:21;;;;;;;;;;;;;;;-2.83;82.38;95923.13;10565321;28;2244;-69
2022/03/07 02:48:24;;;;;;;;;;;-1.90;99.90;;;-2.76;82.37;95932.72;10557192;28;1984;-70
2022/03/07 02:53:28;;;;;;;;;;;-1.90;99.90;;;-2.95;80.20;95935.13;10544235;28;2340;-70
2022/03/07 02:58:30;;;;;;;;;;;-1.90;99.90;;;-2.88;80.55;95933.38;10556123;27;1931;-69
2022/03/07 03:03:34;;;;;;;;;;;-2.10;99.90;;;-2.77;80.08;95936.34;10567426;27;2043;-69
2022/03/07 03:08:37;;;;;;;;;;;-2.00;99.90;;;-2.88;79.20;95928.94;10555788;27;2017;-70
2022/03/07 03:13:41;;;;;;;;;;;-2.00;99.90;;;-2.95;78.02;95935.13;10567516;27;1960;-68
2022/03/07 03:18:45;;;;;;;;;;;-2.00;99.90;;;-2.96;78.26;95936.94;10553547;27;1931;-69
2022/03/07 03:23:52;;;;;;;;;;;-2.10;99.90;;;-2.87;77.68;95930.56;10563541;28;2080;-69
2022/03/07 03:28:55;;;;;;;;;;;-2.00;99.90;;;-2.86;76.94;95937.47;10548295;28;1930;-69
2022/03/07 03:33:58;;;;;;;;;;;-1.90;99.90;;;-2.88;76.59;95934.19;10559011;28;2045;-69
2022/03/07 03:39:02;;;;;;;;;;;-2.00;99.90;;;-2.87;75.87;95940.25;10556648;28;1905;-70
2022/03/07 03:44:05;;;;;;;;;;;-2.00;99.90;;;-2.94;76.28;95934.13;10546601;28;1916;-70
2022/03/07 03:49:09;;;;;;;;;;;-2.00;99.90;;;-2.95;76.58;95928.03;10538342;28;1943;-70
2022/03/07 03:54:12;;;;;;;;;;;-2.00;99.90;;;-2.92;76.10;95930.31;10562606;28;1991;-70
2022/03/07 03:59:15;;;;;;;;;;;-2.00;99.90;;;-2.89;76.34;95937.81;10558393;28;1969;-69
2022/03/07 04:04:19;;;;;;;;;;;-2.10;99.90;;;-2.95;76.73;95943.81;10547951;28;2022;-69
2022/03/07 04:09:22;;;;;;;;;;;-2.10;99.90;;;-2.99;76.35;95939.94;10564718;28;1975;-69
2022/03/07 04:14:25;;;;;;;;;;;-2.20;99.90;;;-2.99;76.23;95937.28;10571311;28;1959;-68
2022/03/07 04:19:28;;;;;;;;;;;-2.10;99.90;;;-2.98;76.51;95938.13;10573077;28;1988;-67
2022/03/07 04:24:32;;;;;;;;;;;-2.00;99.90;;;-2.95;76.63;95933.31;10559502;28;2109;-70
2022/03/07 04:29:35;;;;;;;;;;;-2.00;99.90;;;-3.00;76.42;95927.78;10554541;28;2051;-70
2022/03/07 04:34:39;;;;;;;;;;;-2.10;99.90;;;-3.06;76.85;95941.66;10543181;28;1913;-69
2022/03/07 04:39:42;;;;;;;;;;;-2.20;99.90;;;-3.13;77.06;95941.59;10558757;28;1906;-69
2022/03/07 04:44:46;;;;;;;;;;;-2.20;99.90;;;-3.11;76.70;95949.31;10557206;28;1908;-69
2022/03/07 04:49:49;;;;;;;;;;;-2.20;99.90;;;-3.07;77.34;95945.31;10550016;28;2068;-69
2022/03/07 04:54:53;;;;;;;;;;;-2.20;99.90;;;-2.98;77.23;95938.94;10553947;28;1867;-70
2022/03/07 04:59:56;;;;;;;;;;;-2.20;99.90;;;-3.04;76.51;95934.44;10543861;28;1839;-68
2022/03/07 05:05:01;;;;;;;;;;;-2.10;99.90;;;-3.02;77.25;95935.06;10539371;28;2217;-70
2022/03/07 05:10:03;;;;;;;;;;;-2.10;99.90;;;-2.85;76.66;95939.09;10555321;28;2089;-69
2022/03/07 05:15:07;;;;;;;;;;;-2.00;99.90;;;-2.86;76.50;95934.00;10564557;28;1989;-69
2022/03/07 05:20:11;;;;;;;;;;;-2.00;99.90;;;-2.84;76.38;95942.53;10545630;28;1987;-69
2022/03/07 05:25:14;;;;;;;;;;;-1.90;99.90;;;-2.82;76.36;95948.41;10536910;28;1986;-68
2022/03/07 05:30:17;;;;;;;;;;;-1.90;99.90;;;-3.05;77.02;95952.03;10546452;28;1927;-69
2022/03/07 05:35:20;;;;;;;;;;;-2.10;99.90;;;-3.07;77.52;95945.31;10543449;28;1893;-68
2022/03/07 05:40:23;;;;;;;;;;;-2.10;99.90;;;-3.09;77.41;95960.47;10553718;28;1965;-70
2022/03/07 05:45:26;;;;;;;;;;;-2.10;99.90;;;-3.04;78.06;95947.59;10552237;28;2008;-69
2022/03/07 05:50:30;;;;;;;;;;;-2.20;99.90;;;-3.07;77.99;95947.94;10554094;28;1949;-67
2022/03/07 05:55:33;;;;;;;;;;;-2.10;99.90;;;-3.06;78.04;95952.19;10552499;28;1985;-68
2022/03/07 06:00:36;;;;;;;;;;;-2.20;99.90;;;-3.06;78.79;95952.19;10533570;28;1982;-70
2022/03/07 06:05:39;;;;;;;;;;;-2.20;99.90;;;-3.02;78.31;95958.72;10553611;28;1923;-68
2022/03/07 06:10:42;;;;;;;;;;;-2.20;99.90;;;-2.83;78.36;95957.31;10551924;28;1965;-70
2022/03/07 06:15:45;;;;;;;;;;;-2.10;99.90;;;-2.68;76.89;95959.91;10549196;28;1911;-68
2022/03/07 06:20:49;;;;;;;;;;;-1.90;99.90;;;-2.80;77.14;95956.94;10540398;28;2017;-69
2022/03/07 06:25:52;;;;;;;;;;;-1.80;99.90;;;-2.77;77.12;95967.09;10552334;28;2036;-67
2022/03/07 06:30:55;;;;;;;;;;;-1.90;99.90;;;-2.82;77.63;95972.09;10539422;28;1981;-70
2022/03/07 06:35:59;;;;;;;;;;;-2.00;99.90;;;-2.68;77.90;95980.94;10559489;28;1981;-67
2022/03/07 06:41:02;;;;;;;;;;;-1.80;99.90;;;-2.65;77.03;95985.84;10552069;28;2397;-68
2022/03/07 06:46:05;;;;;;;;;;;-1.80;99.90;;;-2.68;77.86;95994.09;10543919;28;2219;-68
2022/03/07 06:51:09;;;;;;;;;;;-1.80;99.90;;;-2.69;77.95;96000.38;10537970;28;1977;-68
2022/03/07 06:56:12;;;;;;;;;;;-1.80;99.90;;;-2.68;78.24;95991.47;10547547;28;1879;-67
2022/03/07 07:01:16;;;;;;;;;;;-1.70;99.90;;;-2.60;78.17;95994.00;10552985;28;1940;-69
2022/03/07 07:06:20;;;;;;;;;;;-1.80;99.90;;;-2.39;76.92;95986.13;10546176;28;1982;-71
2022/03/07 07:11:23;;;;;;;;;;;-1.60;99.90;;;-2.38;76.64;95998.28;10573564;28;2056;-68
2022/03/07 07:16:26;;;;;;;;;;;-1.50;99.90;;;-2.50;76.45;95987.44;10584545;28;2057;-68
2022/03/07 07:21:29;;;;;;;;;;;-1.50;99.90;;;-2.14;76.38;95989.19;10535744;22;2577;-72
2022/03/07 07:26:31;;;;;;;;;;;-1.40;99.90;;;-2.25;75.63;95987.06;10502140;28;2106;-68
2022/03/07 07:31:37;;;;;;;;;;;-1.30;99.90;;;-2.18;76.42;95998.47;10488594;28;1990;-68
2022/03/07 07:36:40;;;;;;;;;;;-1.40;99.90;;;-2.23;75.13;95996.44;10488472;28;1960;-69
2022/03/07 07:41:43;;;;;;;;;;;-1.40;99.90;;;-2.13;76.11;96003.19;10501681;28;1920;-69
2022/03/07 07:46:47;;;;;;;;;;;-1.30;99.90;;;-2.11;75.78;96020.41;10489163;28;1887;-66
2022/03/07 07:51:50;;;;;;;;;;;-1.10;99.90;;;-1.98;75.32;96031.06;10495982;28;1991;-68
2022/03/07 07:56:53;;;;;;;;;;;-1.20;99.90;;;-1.56;73.35;96039.13;10502072;28;1896;-66
2022/03/07 08:01:56;;;;;;;;;;;-0.90;99.90;;;-1.72;75.04;96034.94;10505763;28;1884;-67
2022/03/07 08:06:59;;;;;;;;;;;-0.90;99.90;;;-0.96;71.84;96041.13;10486083;28;2076;-68
2022/03/07 08:12:02;;;;;;;;;;;-0.70;99.90;;;-1.21;72.04;96050.53;10499671;28;2027;-67
2022/03/07 08:17:06;;;;;;;;;;;-0.40;99.90;;;-1.46;72.38;96051.00;10503542;28;1995;-67
2022/03/07 08:22:10;;;;;;;;;;;-0.40;99.90;;;-1.46;72.73;96047.53;10497694;28;2021;-67
2022/03/07 08:27:13;;;;;;;;;;;-0.50;99.90;;;-1.52;72.86;96066.75;10494368;28;2025;-71
2022/03/07 08:32:15;;;;;;;;;;;-0.50;99.90;;;-1.17;72.39;96064.97;10474214;28;2064;-66
2022/03/07 08:37:18;;;;;;;;;;;-0.50;99.90;;;-1.22;70.83;96073.44;10468540;28;1885;-68
2022/03/07 08:42:21;;;;;;;;;;;-0.30;99.90;;;-1.00;70.39;96063.66;10469187;28;2350;-69
2022/03/07 08:47:24;;;;;;;;;;;-0.20;99.90;;;-0.44;68.97;96057.44;10487314;28;1999;-67
2022/03/07 08:52:27;;;;;;;;;;;0.00;99.90;;;-0.65;67.56;96064.44;10488897;28;1967;-69
2022/03/07 08:57:31;;;;;;;;;;;0.40;99.90;;;-0.75;67.35;96074.56;10494101;28;1933;-70
2022/03/07 09:02:34;;;;;;;;;;;0.30;99.90;;;-0.71;68.01;96070.50;10486540;28;2178;-69
2022/03/07 09:07:37;;;;;;;;;;;0.10;99.90;;;-0.51;66.34;96083.78;10480077;28;1957;-68
2022/03/07 09:12:41;;;;;;;;;;;0.40;99.90;;;-0.47;66.58;96078.94;10492290;28;2074;-67
2022/03/07 09:17:44;;;;;;;;;;;0.50;99.90;;;0.01;65.54;96076.28;10492428;28;1989;-68
2022/03/07 09:22:47;;;;;;;;;;;0.60;99.90;;;-0.36;66.84;96086.31;10488201;28;1983;-69
2022/03/07 09:27:50;;;;;;;;;;;0.50;99.90;;;0.05;65.45;96083.56;10506819;28;2006;-67
2022/03/07 09:32:56;;;;;;;;;;;0.70;99.90;;;0.07;63.41;96093.97;10495266;28;1924;-69
2022/03/07 09:37:58;;;;;;;;;;;0.90;99.90;;;0.48;62.52;96091.97;10501488;28;1975;-68
2022/03/07 09:43:03;;;;;;;;;;;1.00;99.90;;;0.01;63.66;96094.78;10493762;28;2031;-67
2022/03/07 09:48:07;;;;;;;;;;;1.10;99.90;;;-0.03;64.41;96116.28;10490022;28;1932;-65
2022/03/07 09:53:13;;;;;;;;;;;0.90;99.90;;;0.03;63.97;96117.34;10486706;28;1952;-66
2022/03/07 09:58:16;;;;;;;;;;;1.00;99.90;;;0.31;63.98;96108.44;10468017;28;1980;-68
2022/03/07 10:03:19;;;;;;;;;;;1.20;99.90;;;0.47;61.88;96111.53;10470794;28;2124;-68
2022/03/07 10:08:22;;;;;;;;;;;1.40;99.90;;;0.33;61.55;96131.03;10487559;28;2066;-69
2022/03/07 10:13:27;;;;;;;;;;;1.40;99.90;;;1.02;60.30;96113.97;10469962;28;1928;-67
2022/03/07 10:18:30;;;;;;;;;;;1.60;99.90;;;0.54;60.97;96125.56;10489109;28;1887;-69
2022/03/07 10:23:34;;;;;;;;;;;1.50;99.90;;;0.58;59.90;96138.41;10484622;28;1806;-67
2022/03/07 10:28:36;;;;;;;;;;;1.50;99.90;;;0.36;60.01;96146.50;10487368;28;1898;-68
2022/03/07 10:33:39;;;;;;;;;;;1.40;99.90;;;0.92;59.42;96130.25;10477835;28;2890;-68
2022/03/07 10:38:42;;;;;;;;;;;1.50;99.90;;;0.51;59.91;96130.47;10475439;28;2301;-68
2022/03/07 10:43:45;;;;;;;;;;;1.50;99.90;;;0.27;60.01;96131.84;10469398;28;1820;-69
2022/03/07 10:48:49;;;;;;;;;;;1.40;99.90;;;0.74;59.51;96143.28;10465565;28;1910;-68
2022/03/07 10:53:53;;;;;;;;;;;1.40;99.90;;;0.75;59.02;96126.38;10458731;28;1944;-66
2022/03/07 10:58:56;;;;;;;;;;;1.40;99.90;;;0.71;59.75;96122.53;10479577;28;1862;-67
2022/03/07 11:04:00;;;;;;;;;;;1.50;99.90;;;0.17;60.25;96131.41;10468284;28;1873;-67
2022/03/07 11:09:03;;;;;;;;;;;1.50;99.90;;;0.09;60.98;96123.66;10480548;28;1995;-68
2022/03/07 11:14:07;;;;;;;;;;;1.20;99.90;;;0.17;61.27;96123.47;10479243;28;1928;-67
2022/03/07 11:19:10;;;;;;;;;;;1.10;99.90;;;0.45;60.25;96118.03;10486287;28;1877;-68
2022/03/07 11:24:13;;;;;;;;;;;1.30;99.90;;;0.74;59.28;96122.94;10491226;28;1853;-69
2022/03/07 11:29:17;;;;;;;;;;;1.40;99.90;;;0.13;60.90;96130.19;10490514;28;1918;-68
2022/03/07 11:34:20;;;;;;;;;;;1.20;99.90;;;-0.03;62.59;96132.16;10491814;28;1850;-69
2022/03/07 11:39:23;;;;;;;;;;;1.00;99.90;;;0.37;61.83;96120.84;10489932;28;2375;-66
2022/03/07 11:44:27;;;;;;;;;;;1.00;99.90;;;-0.12;60.30;96109.56;10471455;28;2115;-69
2022/03/07 11:49:31;;;;;;;;;;;0.90;99.90;;;0.13;58.33;96103.75;10481337;28;2163;-67
2022/03/07 11:54:34;;;;;;;;;;;1.00;99.90;;;0.69;56.97;96095.44;10483248;28;1833;-69
2022/03/07 11:59:37;;;;;;;;;;;1.20;99.90;;;0.51;57.26;96096.88;10491855;28;2199;-68
2022/03/07 12:04:40;;;;;;;;;;;1.20;99.90;;;0.39;57.26;96087.91;10470548;28;1947;-68
2022/03/07 12:09:43;;;;;;;;;;;1.30;99.90;;;0.36;56.06;96079.56;10487437;28;1983;-70
2022/03/07 12:14:47;;;;;;;;;;;1.30;99.90;;;0.43;54.63;96083.84;10485833;28;1784;-69
2022/03/07 12:19:50;;;;;;;;;;;1.50;99.90;;;0.47;54.58;96084.25;10500369;28;1834;-69
2022/03/07 12:24:54;;;;;;;;;;;1.40;99.90;;;1.03;52.73;96089.13;10487827;28;1769;-69
2022/03/07 12:29:57;;;;;;;;;;;1.60;99.90;;;0.82;51.41;96079.56;10502227;28;1918;-68
2022/03/07 12:35:00;;;;;;;;;;;1.90;99.90;;;1.12;51.39;96068.53;10494167;28;1860;-67
2022/03/07 12:40:05;;;;;;;;;;;1.80;99.90;;;0.77;51.44;96069.63;10490949;28;1775;-68
2022/03/07 12:45:09;;;;;;;;;;;1.70;99.90;;;0.65;52.20;96067.78;10490558;28;1827;-68
2022/03/07 12:50:12;;;;;;;;;;;1.60;99.90;;;1.42;50.68;96060.94;10489678;28;1914;-67
2022/03/07 12:55:15;;;;;;;;;;;1.80;99.90;;;1.29;49.54;96054.66;10485342;28;1757;-67
2022/03/07 13:00:18;;;;;;;;;;;2.20;99.90;;;1.57;48.59;96058.81;10466029;28;1861;-68
2022/03/07 13:05:21;;;;;;;;;;;2.40;99.90;;;0.86;49.71;96056.97;10484392;28;1780;-68
2022/03/07 13:10:24;;;;;;;;;;;2.10;99.90;;;0.65;50.26;96049.28;10485509;28;1914;-69
2022/03/07 13:15:28;;;;;;;;;;;1.80;99.90;;;1.33;48.75;96053.19;10489298;28;1996;-71
2022/03/07 13:20:32;;;;;;;;;;;1.90;99.90;;;1.93;47.28;96052.13;10485375;28;1802;-68
2022/03/07 13:25:34;;;;;;;;;;;2.50;99.90;;;1.38;47.44;96046.47;10532783;22;2337;-66
2022/03/07 13:30:37;;;;;;;;;;;2.50;99.90;;;1.69;46.50;96049.19;10580915;27;1984;-66
2022/03/07 13:35:40;;;;;;;;;;;2.40;99.90;;;1.79;46.02;96054.06;10592309;27;2392;-67
2022/03/07 13:40:43;;;;;;;;;;;2.60;99.90;;;1.51;46.78;96057.81;10602244;27;2067;-67
2022/03/07 13:45:46;;;;;;;;;;;2.50;99.90;;;0.93;48.89;96054.31;10576292;27;2009;-68
2022/03/07 13:50:51;;;;;;;;;;;2.10;99.90;;;0.55;48.76;96044.38;10592663;27;1909;-67
2022/03/07 13:55:55;;;;;;;;;;;1.80;99.90;;;0.39;49.75;96056.19;10604064;27;1782;-66
2022/03/07 14:00:58;;;;;;;;;;;1.50;99.90;;;0.06;50.80;96050.84;10600053;27;1829;-66
2022/03/07 14:06:03;;;;;;;;;;;1.10;99.90;;;0.10;50.43;96044.16;10599743;27;1924;-68
2022/03/07 14:11:09;;;;;;;;;;;1.00;99.90;;;0.11;50.47;96053.69;10598732;27;1909;-67
2022/03/07 14:16:12;;;;;;;;;;;1.10;99.90;;;0.16;49.20;96051.28;10601761;27;2099;-67
2022/03/07 14:21:15;;;;;;;;;;;1.10;99.90;;;0.11;49.87;96058.19;10579853;27;1857;-67
2022/03/07 14:26:36;;;;;;;;;;;1.10;99.90;;;0.16;49.62;96059.19;10594167;27;1929;-67
2022/03/07 14:31:41;;;;;;;;;;;1.00;99.90;;;0.31;49.53;96059.00;10585200;28;2190;-67
2022/03/07 14:36:45;;;;;;;;;;;1.30;99.90;;;0.14;49.16;96060.44;10609721;28;1877;-66
2022/03/07 14:41:48;;;;;;;;;;;1.30;99.90;;;-0.13;49.63;96062.19;10582385;28;1814;-66
2022/03/07 14:47:06;;;;;;;;;;;0.90;99.90;;;-0.11;49.85;96061.00;10600047;28;1852;-67
2022/03/07 14:52:09;;;;;;;;;;;1.00;99.90;;;-0.29;49.70;96064.19;10580313;27;1975;-67
2022/03/07 14:57:12;;;;;;;;;;;0.80;99.90;;;-0.15;49.64;96051.81;10606338;27;1694;-66
2022/03/07 15:02:16;;;;;;;;;;;0.80;99.90;;;-0.30;51.14;96048.53;10594713;27;2226;-66
2022/03/07 15:07:20;;;;;;;;;;;0.70;99.90;;;-0.13;50.16;96051.63;10592180;27;2119;-65
2022/03/07 15:12:24;;;;;;;;;;;0.70;99.90;;;-0.18;49.60;96049.59;10594790;27;1910;-67
2022/03/07 15:17:28;;;;;;;;;;;0.80;99.90;;;-0.32;49.77;96047.91;10590630;27;1945;-67
2022/03/07 15:22:32;;;;;;;;;;;0.70;99.90;;;-0.26;48.92;96057.69;10609027;27;1920;-67
2022/03/07 15:27:40;;;;;;;;;;;0.70;99.90;;;-0.20;49.89;96033.09;10611179;27;2035;-69
2022/03/07 15:32:45;;;;;;;;;;;0.80;99.90;;;-0.22;50.24;96043.06;10629432;27;1917;-69
2022/03/07 15:37:48;;;;;;;;;;;0.80;99.90;;;-0.48;50.76;96035.06;10605311;27;1848;-71
2022/03/07 15:42:50;;;;;;;;;;;0.60;99.90;;;-0.56;49.87;96036.88;10594671;27;1923;-69
2022/03/07 15:47:53;;;;;;;;;;;0.50;99.90;;;-0.59;50.51;96031.97;10602290;27;1753;-70
2022/03/07 15:52:56;;;;;;;;;;;0.40;99.90;;;-0.75;50.38;96042.06;10608399;27;1905;-70
2022/03/07 15:58:01;;;;;;;;;;;0.30;99.90;;;-0.78;51.23;96032.69;10590587;27;1925;-71
2022/03/07 16:03:03;;;;;;;;;;;0.20;99.90;;;-0.77;50.52;96029.06;10613742;27;1884;-71
2022/03/07 16:08:07;;;;;;;;;;;0.20;99.90;;;-0.75;50.62;96027.06;10619273;27;1791;-70
2022/03/07 16:13:09;;;;;;;;;;;0.30;99.90;;;-0.71;51.25;96032.72;10629498;27;1976;-70
2022/03/07 16:18:13;;;;;;;;;;;0.20;99.90;;;-0.80;50.83;96040.00;10631309;27;1829;-70
2022/03/07 16:23:16;;;;;;;;;;;0.20;99.90;;;-0.87;51.77;96045.25;10603990;27;1789;-70
2022/03/07 16:28:20;;;;;;;;;;;0.20;99.90;;;-0.99;51.59;96049.47;10594684;27;1805;-71
2022/03/07 16:33:23;;;;;;;;;;;0.10;99.90;;;-1.00;51.53;96066.31;10613239;27;2240;-69
2022/03/07 16:38:26;;;;;;;;;;;0.00;99.90;;;-1.06;51.35;96067.06;10616544;27;1837;-70
2022/03/07 16:43:29;;;;;;;;;;;-0.10;99.90;;;-1.11;51.41;96070.28;10622657;27;1838;-69
2022/03/07 16:48:33;;;;;;;;;;;-0.10;99.90;;;-1.21;50.92;96072.47;10625448;27;1964;-69
2022/03/07 16:53:35;;;;;;;;;;;-0.10;99.90;;;-1.26;51.98;96076.69;10599851;27;2118;-70
2022/03/07 16:58:38;;;;;;;;;;;-0.20;99.90;;;-1.32;51.14;96078.25;10606789;27;2031;-69
2022/03/07 17:03:41;;;;;;;;;;;-0.30;99.90;;;-1.39;53.02;96087.94;10602962;27;1908;-68
2022/03/07 17:08:45;;;;;;;;;;;-0.30;99.90;;;-1.53;52.75;96091.47;10586558;27;1830;-69
2022/03/07 17:13:48;;;;;;;;;;;-0.40;99.90;;;-1.64;53.79;96100.72;10612259;27;1934;-68
2022/03/07 17:18:50;;;;;;;;;;;-0.50;99.90;;;-1.59;54.01;96097.50;10583531;27;1985;-70
2022/03/07 17:23:53;;;;;;;;;;;-0.50;99.90;;;-1.67;53.19;96101.09;10600396;27;2376;-70
2022/03/07 17:28:56;;;;;;;;;;;-0.50;99.90;;;-1.70;52.91;96112.03;10593666;27;1755;-69
2022/03/07 17:33:59;;;;;;;;;;;-0.70;99.90;;;-1.81;53.25;96115.16;10602712;27;1991;-67
2022/03/07 17:39:03;;;;;;;;;;;-0.80;99.90;;;-1.87;52.45;96121.97;10598561;27;1956;-69
2022/03/07 17:44:09;;;;;;;;;;;-0.80;99.90;;;-1.91;53.13;96125.97;10581655;27;2163;-69
2022/03/07 17:49:13;;;;;;;;;;;-0.90;99.90;;;-2.02;53.50;96131.75;10581419;27;1737;-70
2022/03/07 17:54:16;;;;;;;;;;;-1.00;99.90;;;-2.08;53.98;96135.13;10588488;27;1929;-68
2022/03/07 17:59:19;;;;;;;;;;;-1.00;99.90;;;-2.04;53.16;96146.91;10606251;27;1865;-71
2022/03/07 18:04:23;;;;;;;;;;;-1.00;99.90;;;-2.09;54.47;96157.22;10615362;27;1796;-70
2022/03/07 18:09:27;;;;;;;;;;;-1.00;99.90;;;-2.11;53.01;96151.31;10585681;27;1687;-70
2022/03/07 18:14:31;;;;;;;;;;;-1.00;99.90;;;-2.22;54.62;96160.50;10583638;27;1982;-70
2022/03/07 18:19:36;;;;;;;;;;;-1.20;99.90;;;-2.25;54.18;96166.13;10587500;27;1789;-69
2022/03/07 18:24:39;;;;;;;;;;;-1.20;99.90;;;-2.31;54.91;96178.22;10584417;27;1839;-69
2022/03/07 18:29:42;;;;;;;;;;;-1.20;99.90;;;-2.34;54.64;96178.59;10604364;27;1917;-71
2022/03/07 18:34:46;;;;;;;;;;;-1.20;99.90;;;-2.39;55.51;96191.47;10608112;27;1808;-70
2022/03/07 18:39:48;;;;;;;;;;;-1.30;99.90;;;-2.38;54.82;96192.28;10613886;27;1881;-68
2022/03/07 18:44:52;;;;;;;;;;;-1.40;99.90;;;-2.31;54.95;96199.28;10604024;27;1960;-68
2022/03/07 18:49:56;;;;;;;;;;;-1.30;99.90;;;-2.39;55.17;96209.91;10599586;27;1969;-68
2022/03/07 18:54:59;;;;;;;;;;;-1.30;99.90;;;-2.44;55.32;96209.63;10592791;28;1887;-68
2022/03/07 19:00:05;;;;;;;;;;;-1.30;99.90;;;-2.43;55.16;96207.81;10601340;28;3553;-68
2022/03/07 19:05:08;;;;;;;;;;;-1.40;99.90;;;-2.48;55.40;96213.66;10585837;28;3846;-71
2022/03/07 19:10:12;;;;;;;;;;;-1.40;99.90;;;-2.54;55.44;96206.47;10597792;28;3756;-67
2022/03/07 19:15:15;;;;;;;;;;;-1.50;99.90;;;-2.53;55.51;96205.47;10582522;28;1856;-68
2022/03/07 19:20:18;;;;;;;;;;;-1.50;99.90;;;-2.54;55.87;96209.09;10583832;28;1879;-68
2022/03/07 19:25:22;;;;;;;;;;;-1.50;99.90;;;-2.54;54.88;96209.91;10614514;22;2340;-71
2022/03/07 19:30:25;;;;;;;;;;;-1.50;99.90;;;-2.48;55.12;96208.38;10512283;28;1957;-70
2022/03/07 19:35:29;;;;;;;;;;;-1.50;99.90;;;-2.53;54.38;96205.47;10506921;28;1809;-70
2022/03/07 19:40:31;;;;;;;;;;;-1.50;99.90;;;-2.53;54.45;96213.38;10524352;28;2042;-69
2022/03/07 19:45:40;;;;;;;;;;;-1.50;99.90;;;-2.55;54.91;96221.41;10525777;28;1946;-70
2022/03/07 19:50:43;;;;;;;;;;;-1.50;99.90;;;-2.68;55.43;96218.59;10529452;28;2144;-71
2022/03/07 19:55:46;;;;;;;;;;;-1.50;99.90;;;-2.74;56.03;96222.75;10521805;28;2330;-73
2022/03/07 20:00:49;;;;;;;;;;;-1.70;99.90;;;-2.74;55.93;96224.56;10526760;28;1882;-71
2022/03/07 20:05:54;;;;;;;;;;;-1.60;99.90;;;-2.81;55.40;96219.22;10520538;28;1808;-73
2022/03/07 20:10:58;;;;;;;;;;;-1.70;99.90;;;-2.80;56.76;96230.56;10527698;28;1972;-71
2022/03/07 20:16:01;;;;;;;;;;;-1.50;99.90;;;-2.82;55.62;96237.81;10523148;28;1934;-71
2022/03/07 20:21:06;;;;;;;;;;;-1.80;99.90;;;-2.93;56.67;96236.44;10528587;28;1769;-70
2022/03/07 20:26:09;;;;;;;;;;;-1.90;99.90;;;-3.00;57.10;96236.31;10524411;28;2435;-72
2022/03/07 20:31:12;;;;;;;;;;;-2.00;99.90;;;-3.02;56.68;96232.25;10532152;28;1914;-72
2022/03/07 20:36:16;;;;;;;;;;;-2.00;99.90;;;-3.04;56.31;96235.06;10530138;28;1972;-71
2022/03/07 20:41:19;;;;;;;;;;;-2.00;99.90;;;-3.12;57.50;96221.16;10524799;28;1820;-72
2022/03/07 20:46:23;;;;;;;;;;;-2.10;99.90;;;-3.15;57.43;96229.41;10521888;28;1800;-71
2022/03/07 20:51:26;;;;;;;;;;;-2.10;99.90;;;-3.22;58.18;96226.66;10526726;28;2250;-71
2022/03/07 20:56:29;;;;;;;;;;;-2.20;99.90;;;-3.29;58.67;96226.56;10524545;28;1850;-71
2022/03/07 21:01:32;;;;;;;;;;;-2.70;99.90;;;-3.35;58.25;96221.19;10528316;28;1878;-71
2022/03/07 21:06:35;;;;;;;;;;;-2.40;99.90;;;-3.30;58.72;96222.28;10522306;28;1779;-71
2022/03/07 21:11:38;;;;;;;;;;;-2.30;99.90;;;-3.40;59.04;96218.25;10521063;28;2201;-68
2022/03/07 21:16:41;;;;;;;;;;;-2.30;99.90;;;-3.35;58.27;96216.75;10516805;28;1841;-68
2022/03/07 21:21:45;;;;;;;;;;;-2.30;99.90;;;-3.43;59.09;96214.19;10536570;28;1840;-69
2022/03/07 21:26:47;;;;;;;;;;;-2.30;99.90;;;-3.52;59.66;96217.84;10529795;28;2069;-70
2022/03/07 21:31:50;;;;;;;;;;;-2.40;99.90;;;-3.59;60.49;96209.03;10532385;28;1917;-69
2022/03/07 21:36:53;;;;;;;;;;;-2.40;99.90;;;-3.65;60.19;96220.22;10531848;28;1871;-70
2022/03/07 21:41:56;;;;;;;;;;;-2.60;99.90;;;-3.66;60.13;96211.53;10530513;28;2084;-70
2022/03/07 21:46:59;;;;;;;;;;;-2.60;99.90;;;-3.74;61.52;96210.78;10523969;28;1798;-69
2022/03/07 21:52:02;;;;;;;;;;;-2.70;99.90;;;-3.82;61.76;96204.59;10535098;28;1922;-68
2022/03/07 21:57:09;;;;;;;;;;;-2.80;99.90;;;-3.77;61.73;96211.09;10530401;28;1821;-68
2022/03/07 22:02:12;;;;;;;;;;;-2.80;99.90;;;-3.75;61.65;96198.59;10522314;28;1882;-70
2022/03/07 22:07:18;;;;;;;;;;;-2.80;99.90;;;-3.80;62.12;96196.53;10524637;28;2022;-69
2022/03/07 22:12:21;;;;;;;;;;;-2.80;99.90;;;-3.84;62.19;96188.16;10521259;28;1975;-70
2022/03/07 22:17:24;;;;;;;;;;;-2.80;99.90;;;-3.85;62.00;96178.66;10530830;28;1876;-69
2022/03/07 22:22:27;;;;;;;;;;;-2.90;99.90;;;-3.86;62.72;96179.66;10527651;28;1867;-69
2022/03/07 22:27:31;;;;;;;;;;;-2.90;99.90;;;-3.93;62.82;96175.28;10527907;28;1882;-69
2022/03/07 22:32:34;;;;;;;;;;;-2.80;99.90;;;-4.02;63.13;96166.59;10523794;28;1918;-69
2022/03/07 22:37:40;;;;;;;;;;;;;;;-4.04;63.34;96163.34;10535977;28;1923;-69
2022/03/07 22:42:43;;;;;;;;;;;-3.00;99.90;;;-4.07;63.01;96163.69;10524817;28;1844;-69
2022/03/07 22:47:47;;;;;;;;;;;-3.00;99.90;;;-4.09;63.40;96157.78;10533701;28;2142;-70
2022/03/07 22:52:50;;;;;;;;;;;-3.00;99.90;;;-4.20;64.16;96158.16;10533237;28;2113;-69
2022/03/07 22:57:54;;;;;;;;;;;-3.10;99.90;;;-4.23;64.48;96148.03;10537372;28;1898;-69
2022/03/07 23:02:58;;;;;;;;;;;-3.10;99.90;;;-4.25;64.66;96142.13;10529580;28;1812;-69
2022/03/07 23:08:01;;;;;;;;;;;-3.20;99.90;;;-4.15;64.20;96146.16;10537279;28;1887;-68
2022/03/07 23:13:04;;;;;;;;;;;-3.00;99.90;;;-4.25;64.18;96144.75;10533413;28;1918;-68
2022/03/07 23:18:07;;;;;;;;;;;-3.20;99.90;;;-4.32;65.19;96149.88;10552279;28;1897;-68
2022/03/07 23:23:11;;;;;;;;;;;;;;;-4.37;64.92;96144.31;10539968;28;1835;-68